createdAt,value
2023-02-22T00:00:07.238Z,0.00
2023-02-22T00:01:07.382Z,0.00
2023-02-22T00:02:07.251Z,0.00
2023-02-22T00:03:07.242Z,0.00
2023-02-22T00:04:07.319Z,0.00
2023-02-22T00:05:07.199Z,0.00
2023-02-22T00:06:07.293Z,0.00
2023-02-22T00:07:07.175Z,0.00
2023-02-22T00:08:07.366Z,0.00
2023-02-22T00:09:07.407Z,0.00
2023-02-22T00:10:07.338Z,0.00
2023-02-22T00:11:07.198Z,0.00
2023-02-22T00:12:07.132Z,0.00
2023-02-22T00:13:07.234Z,0.00
2023-02-22T00:14:07.402Z,0.00
2023-02-22T00:15:07.291Z,0.00
2023-02-22T00:16:07.338Z,0.00
2023-02-22T00:17:07.371Z,0.00
2023-02-22T00:18:07.280Z,0.00
2023-02-22T00:19:07.257Z,0.00
2023-02-22T00:20:07.170Z,0.00
2023-02-22T00:21:07.157Z,0.00
2023-02-22T00:22:07.279Z,0.00
2023-02-22T00:23:07.387Z,0.00
2023-02-22T00:24:07.258Z,0.00
2023-02-22T00:25:07.234Z,0.00
2023-02-22T00:26:07.118Z,0.00
2023-02-22T00:27:07.235Z,0.00
2023-02-22T00:28:07.148Z,0.00
2023-02-22T00:29:07.197Z,0.00
2023-02-22T00:30:07.196Z,0.00
2023-02-22T00:31:07.209Z,0.00
2023-02-22T00:32:07.197Z,0.00
2023-02-22T00:33:07.213Z,0.00
2023-02-22T00:34:08.062Z,0.00
2023-02-22T00:35:07.281Z,0.00
2023-02-22T00:36:07.240Z,0.00
2023-02-22T00:37:07.072Z,0.00
2023-02-22T00:38:07.178Z,0.00
2023-02-22T00:39:07.123Z,0.00
2023-02-22T00:40:06.950Z,0.00
2023-02-22T00:41:07.302Z,0.00
2023-02-22T00:42:07.006Z,0.00
2023-02-22T00:43:06.941Z,0.00
2023-02-22T00:44:06.915Z,0.00
2023-02-22T00:45:06.906Z,0.00
2023-02-22T00:46:06.962Z,0.00
2023-02-22T00:47:06.910Z,0.00
2023-02-22T00:48:06.905Z,0.00
2023-02-22T00:49:06.884Z,0.00
2023-02-22T00:50:06.896Z,0.00
2023-02-22T00:51:06.889Z,0.00
2023-02-22T00:52:06.861Z,0.00
2023-02-22T00:53:06.877Z,0.00
2023-02-22T00:54:06.848Z,0.00
2023-02-22T00:55:06.849Z,0.00
2023-02-22T00:56:06.925Z,0.00
2023-02-22T00:57:06.818Z,0.00
2023-02-22T00:58:06.839Z,0.00
2023-02-22T00:59:06.789Z,0.00
2023-02-22T01:00:07.791Z,0.00
2023-02-22T01:01:06.948Z,0.00
2023-02-22T01:02:06.803Z,0.00
2023-02-22T01:03:06.811Z,0.00
2023-02-22T01:04:06.773Z,0.00
2023-02-22T01:05:06.761Z,0.00
2023-02-22T01:06:06.781Z,0.00
2023-02-22T01:07:06.864Z,0.00
2023-02-22T01:08:06.775Z,0.00
2023-02-22T01:09:06.772Z,0.00
2023-02-22T01:10:06.751Z,0.00
2023-02-22T01:11:06.714Z,0.00
2023-02-22T01:12:06.709Z,0.00
2023-02-22T01:13:06.722Z,0.00
2023-02-22T01:14:06.697Z,0.00
2023-02-22T01:15:06.707Z,0.00
2023-02-22T01:16:06.706Z,0.00
2023-02-22T01:17:06.821Z,0.00
2023-02-22T01:18:06.696Z,0.00
2023-02-22T01:19:06.667Z,0.00
2023-02-22T01:20:06.660Z,0.00
2023-02-22T01:21:06.653Z,0.00
2023-02-22T01:22:06.642Z,0.00
2023-02-22T01:23:06.863Z,0.00
2023-02-22T01:24:06.629Z,0.00
2023-02-22T01:25:06.619Z,0.00
2023-02-22T01:26:06.625Z,0.00
2023-02-22T01:27:06.618Z,0.00
2023-02-22T01:28:06.622Z,0.00
2023-02-22T01:29:06.597Z,0.00
2023-02-22T01:30:06.663Z,0.00
2023-02-22T01:31:06.592Z,0.00
2023-02-22T01:32:06.671Z,0.00
2023-02-22T01:33:06.654Z,0.00
2023-02-22T01:34:06.657Z,0.00
2023-02-22T01:35:06.546Z,0.00
2023-02-22T01:36:06.551Z,0.00
2023-02-22T01:37:06.562Z,0.00
2023-02-22T01:38:06.553Z,0.00
2023-02-22T01:39:06.531Z,0.00
2023-02-22T01:40:06.569Z,0.00
2023-02-22T01:41:06.510Z,0.00
2023-02-22T01:42:06.507Z,0.00
2023-02-22T01:43:06.506Z,0.00
2023-02-22T01:44:06.494Z,0.00
2023-02-22T01:45:06.499Z,0.00
2023-02-22T01:46:06.505Z,0.00
2023-02-22T01:47:06.477Z,0.00
2023-02-22T01:48:06.500Z,0.00
2023-02-22T01:49:06.504Z,0.00
2023-02-22T01:50:06.463Z,0.00
2023-02-22T01:51:06.442Z,0.00
2023-02-22T01:52:06.435Z,0.00
2023-02-22T01:53:06.464Z,0.00
2023-02-22T01:54:06.425Z,0.00
2023-02-22T01:55:06.452Z,0.00
2023-02-22T01:56:06.420Z,0.00
2023-02-22T01:57:06.404Z,0.00
2023-02-22T01:58:07.419Z,0.00
2023-02-22T01:59:06.393Z,0.00
2023-02-22T02:00:06.402Z,0.00
2023-02-22T02:01:06.379Z,0.00
2023-02-22T02:02:06.371Z,0.00
2023-02-22T02:03:06.391Z,0.00
2023-02-22T02:04:06.384Z,0.00
2023-02-22T02:05:06.467Z,0.00
2023-02-22T02:06:06.344Z,0.00
2023-02-22T02:07:06.341Z,0.00
2023-02-22T02:08:06.349Z,0.00
2023-02-22T02:09:06.312Z,0.00
2023-02-22T02:10:06.327Z,0.00
2023-02-22T02:11:08.722Z,0.00
2023-02-22T02:12:06.302Z,0.00
2023-02-22T02:13:06.349Z,0.00
2023-02-22T02:14:06.283Z,0.00
2023-02-22T02:15:06.276Z,0.00
2023-02-22T02:16:06.263Z,0.00
2023-02-22T02:17:06.299Z,0.00
2023-02-22T02:18:06.271Z,0.00
2023-02-22T02:19:06.250Z,0.00
2023-02-22T02:20:06.242Z,0.00
2023-02-22T02:21:06.240Z,0.00
2023-02-22T02:22:06.232Z,0.00
2023-02-22T02:23:06.257Z,0.00
2023-02-22T02:24:06.232Z,0.00
2023-02-22T02:25:06.206Z,0.00
2023-02-22T02:26:06.200Z,0.00
2023-02-22T02:27:06.193Z,0.00
2023-02-22T02:28:06.185Z,0.00
2023-02-22T02:29:06.197Z,0.00
2023-02-22T02:30:06.239Z,0.00
2023-02-22T02:31:06.183Z,0.00
2023-02-22T02:32:06.296Z,0.00
2023-02-22T02:33:06.145Z,0.00
2023-02-22T02:34:06.230Z,0.00
2023-02-22T02:35:06.143Z,0.00
2023-02-22T02:36:06.141Z,0.00
2023-02-22T02:37:06.128Z,0.00
2023-02-22T02:38:06.123Z,0.00
2023-02-22T02:39:06.386Z,0.00
2023-02-22T02:40:06.148Z,0.00
2023-02-22T02:41:06.102Z,0.00
2023-02-22T02:42:06.093Z,0.00
2023-02-22T02:43:06.083Z,0.00
2023-02-22T02:44:06.102Z,0.00
2023-02-22T02:45:06.067Z,0.00
2023-02-22T02:46:06.072Z,0.00
2023-02-22T02:47:06.105Z,0.00
2023-02-22T02:48:06.079Z,0.00
2023-02-22T02:49:06.072Z,0.00
2023-02-22T02:50:06.050Z,0.00
2023-02-22T02:51:06.031Z,0.00
2023-02-22T02:52:06.033Z,0.00
2023-02-22T02:53:06.033Z,0.00
2023-02-22T02:54:06.031Z,0.00
2023-02-22T02:55:06.002Z,0.00
2023-02-22T02:56:05.999Z,0.00
2023-02-22T02:57:06.952Z,0.00
2023-02-22T02:58:05.994Z,0.00
2023-02-22T02:59:05.981Z,0.00
2023-02-22T03:00:05.975Z,0.00
2023-02-22T03:01:05.955Z,0.00
2023-02-22T03:02:07.127Z,0.00
2023-02-22T03:03:05.951Z,0.00
2023-02-22T03:04:05.955Z,0.00
2023-02-22T03:05:05.935Z,0.00
2023-02-22T03:06:05.931Z,0.00
2023-02-22T03:07:05.979Z,0.00
2023-02-22T03:08:05.902Z,0.00
2023-02-22T03:09:05.926Z,0.00
2023-02-22T03:10:05.896Z,0.00
2023-02-22T03:11:05.892Z,0.00
2023-02-22T03:12:05.884Z,0.00
2023-02-22T03:13:05.879Z,0.00
2023-02-22T03:14:05.897Z,0.00
2023-02-22T03:15:05.864Z,0.00
2023-02-22T03:16:05.869Z,0.00
2023-02-22T03:17:05.849Z,0.00
2023-02-22T03:18:05.854Z,0.00
2023-02-22T03:19:05.853Z,0.00
2023-02-22T03:20:05.853Z,0.00
2023-02-22T03:21:05.819Z,0.00
2023-02-22T03:22:05.809Z,0.00
2023-02-22T03:23:05.808Z,0.00
2023-02-22T03:24:05.824Z,0.00
2023-02-22T03:25:05.795Z,0.00
2023-02-22T03:26:05.790Z,0.00
2023-02-22T03:27:05.779Z,0.00
2023-02-22T03:28:05.770Z,0.00
2023-02-22T03:29:05.791Z,0.00
2023-02-22T03:30:05.802Z,0.00
2023-02-22T03:31:05.821Z,0.00
2023-02-22T03:32:05.769Z,0.00
2023-02-22T03:33:05.735Z,0.00
2023-02-22T03:34:05.750Z,0.00
2023-02-22T03:35:05.727Z,0.00
2023-02-22T03:36:05.718Z,0.00
2023-02-22T03:37:05.720Z,0.00
2023-02-22T03:38:05.709Z,0.00
2023-02-22T03:39:05.717Z,0.00
2023-02-22T03:40:05.706Z,0.00
2023-02-22T03:41:06.447Z,0.00
2023-02-22T03:42:05.688Z,0.00
2023-02-22T03:43:05.681Z,0.00
2023-02-22T03:44:05.698Z,0.00
2023-02-22T03:45:05.689Z,0.00
2023-02-22T03:46:05.686Z,0.00
2023-02-22T03:47:05.665Z,0.00
2023-02-22T03:48:05.642Z,0.00
2023-02-22T03:49:05.667Z,0.00
2023-02-22T03:50:05.635Z,0.00
2023-02-22T03:51:05.634Z,0.00
2023-02-22T03:52:05.624Z,0.00
2023-02-22T03:53:05.607Z,0.00
2023-02-22T03:54:05.625Z,0.00
2023-02-22T03:55:05.659Z,0.00
2023-02-22T03:56:05.589Z,0.00
2023-02-22T03:57:05.580Z,0.00
2023-02-22T03:58:05.577Z,0.00
2023-02-22T03:59:05.592Z,0.00
2023-02-22T04:00:05.565Z,0.00
2023-02-22T04:01:05.574Z,0.00
2023-02-22T04:02:05.551Z,0.00
2023-02-22T04:03:05.602Z,0.00
2023-02-22T04:04:05.554Z,0.00
2023-02-22T04:05:05.530Z,0.00
2023-02-22T04:06:05.537Z,0.00
2023-02-22T04:07:05.542Z,0.00
2023-02-22T04:08:05.509Z,0.00
2023-02-22T04:09:05.497Z,0.00
2023-02-22T04:10:05.490Z,0.00
2023-02-22T04:11:05.506Z,0.00
2023-02-22T04:12:05.515Z,0.00
2023-02-22T04:13:05.473Z,0.00
2023-02-22T04:14:05.473Z,0.00
2023-02-22T04:15:05.462Z,0.00
2023-02-22T04:16:05.509Z,0.00
2023-02-22T04:17:05.466Z,0.00
2023-02-22T04:18:05.442Z,0.00
2023-02-22T04:19:05.454Z,0.00
2023-02-22T04:20:05.424Z,0.00
2023-02-22T04:21:05.422Z,0.00
2023-02-22T04:22:05.417Z,0.00
2023-02-22T04:23:05.426Z,0.00
2023-02-22T04:24:05.493Z,0.00
2023-02-22T04:25:05.396Z,0.00
2023-02-22T04:26:05.401Z,0.00
2023-02-22T04:27:05.409Z,0.00
2023-02-22T04:28:05.386Z,0.00
2023-02-22T04:29:05.390Z,0.00
2023-02-22T04:30:05.466Z,0.00
2023-02-22T04:31:05.387Z,0.00
2023-02-22T04:32:05.410Z,0.00
2023-02-22T04:33:05.382Z,0.00
2023-02-22T04:34:05.375Z,0.00
2023-02-22T04:35:05.323Z,0.00
2023-02-22T04:36:05.324Z,0.00
2023-02-22T04:37:05.331Z,0.00
2023-02-22T04:38:05.324Z,0.00
2023-02-22T04:39:05.311Z,0.00
2023-02-22T04:40:05.294Z,0.00
2023-02-22T04:41:05.282Z,0.00
2023-02-22T04:42:05.281Z,0.00
2023-02-22T04:43:05.299Z,0.00
2023-02-22T04:44:05.266Z,0.00
2023-02-22T04:45:05.272Z,0.00
2023-02-22T04:46:05.291Z,0.00
2023-02-22T04:47:05.255Z,0.00
2023-02-22T04:48:05.259Z,0.00
2023-02-22T04:49:05.258Z,0.00
2023-02-22T04:50:05.229Z,0.00
2023-02-22T04:51:05.219Z,0.00
2023-02-22T04:52:05.227Z,0.00
2023-02-22T04:53:05.201Z,0.00
2023-02-22T04:54:05.215Z,0.00
2023-02-22T04:55:05.198Z,0.00
2023-02-22T04:56:05.240Z,0.00
2023-02-22T04:57:05.214Z,0.00
2023-02-22T04:58:05.207Z,0.00
2023-02-22T04:59:05.209Z,0.00
2023-02-22T05:00:05.205Z,0.00
2023-02-22T05:01:05.189Z,0.00
2023-02-22T05:02:05.158Z,0.00
2023-02-22T05:03:05.160Z,0.00
2023-02-22T05:04:05.176Z,0.00
2023-02-22T05:05:05.167Z,0.00
2023-02-22T05:06:05.112Z,0.00
2023-02-22T05:07:05.105Z,0.00
2023-02-22T05:08:05.103Z,0.00
2023-02-22T05:09:05.123Z,0.00
2023-02-22T05:10:05.101Z,0.00
2023-02-22T05:11:05.081Z,0.00
2023-02-22T05:12:05.067Z,0.00
2023-02-22T05:13:05.083Z,0.00
2023-02-22T05:14:05.072Z,0.00
2023-02-22T05:15:05.126Z,0.00
2023-02-22T05:16:05.113Z,0.00
2023-02-22T05:17:05.070Z,0.00
2023-02-22T05:18:05.133Z,0.00
2023-02-22T05:19:05.137Z,0.00
2023-02-22T05:20:05.072Z,0.00
2023-02-22T05:21:05.013Z,0.00
2023-02-22T05:22:05.032Z,0.00
2023-02-22T05:23:05.039Z,0.00
2023-02-22T05:24:05.022Z,0.00
2023-02-22T05:25:04.979Z,0.00
2023-02-22T05:26:04.995Z,0.00
2023-02-22T05:27:04.980Z,0.00
2023-02-22T05:28:05.003Z,0.00
2023-02-22T05:29:04.974Z,0.00
2023-02-22T05:30:05.003Z,0.00
2023-02-22T05:31:04.980Z,0.00
2023-02-22T05:32:05.017Z,0.00
2023-02-22T05:33:04.978Z,0.00
2023-02-22T05:34:05.969Z,0.00
2023-02-22T05:35:04.980Z,0.00
2023-02-22T05:36:04.996Z,0.00
2023-02-22T05:37:04.937Z,0.00
2023-02-22T05:38:04.942Z,0.00
2023-02-22T05:39:04.898Z,0.00
2023-02-22T05:40:05.141Z,0.00
2023-02-22T05:41:04.940Z,0.00
2023-02-22T05:42:04.889Z,0.00
2023-02-22T05:43:04.896Z,0.00
2023-02-22T05:44:04.865Z,0.00
2023-02-22T05:45:05.878Z,0.00
2023-02-22T05:46:05.654Z,0.00
2023-02-22T05:47:04.905Z,0.00
2023-02-22T05:48:04.849Z,0.00
2023-02-22T05:49:04.850Z,0.00
2023-02-22T05:50:04.901Z,0.00
2023-02-22T05:51:05.590Z,0.00
2023-02-22T05:52:04.877Z,0.00
2023-02-22T05:53:04.820Z,0.00
2023-02-22T05:54:04.921Z,0.00
2023-02-22T05:55:04.811Z,0.00
2023-02-22T05:56:04.781Z,0.00
2023-02-22T05:57:04.880Z,0.00
2023-02-22T05:58:04.801Z,0.00
2023-02-22T05:59:04.756Z,0.00
2023-02-22T06:00:04.945Z,0.00
2023-02-22T06:01:04.751Z,0.00
2023-02-22T06:02:04.859Z,0.00
2023-02-22T06:03:04.742Z,0.00
2023-02-22T06:04:04.732Z,0.00
2023-02-22T06:05:04.815Z,0.00
2023-02-22T06:06:04.717Z,0.00
2023-02-22T06:07:04.704Z,0.00
2023-02-22T06:08:04.727Z,0.00
2023-02-22T06:09:04.694Z,0.00
2023-02-22T06:10:04.751Z,0.00
2023-02-22T06:11:04.677Z,0.00
2023-02-22T06:12:04.675Z,0.00
2023-02-22T06:13:04.669Z,0.00
2023-02-22T06:14:04.675Z,0.00
2023-02-22T06:15:04.664Z,0.00
2023-02-22T06:16:04.698Z,0.00
2023-02-22T06:17:04.642Z,0.00
2023-02-22T06:18:04.635Z,0.00
2023-02-22T06:19:04.618Z,0.00
2023-02-22T06:20:04.623Z,0.00
2023-02-22T06:21:04.608Z,0.00
2023-02-22T06:22:04.595Z,0.00
2023-02-22T06:23:04.602Z,0.00
2023-02-22T06:24:04.586Z,0.00
2023-02-22T06:25:04.595Z,0.00
2023-02-22T06:26:04.561Z,0.00
2023-02-22T06:27:04.567Z,0.00
2023-02-22T06:28:04.562Z,0.00
2023-02-22T06:29:04.540Z,0.00
2023-02-22T06:30:04.565Z,0.00
2023-02-22T06:31:04.557Z,0.00
2023-02-22T06:32:04.671Z,0.00
2023-02-22T06:33:04.526Z,5.62
2023-02-22T06:34:04.513Z,5.62
2023-02-22T06:35:04.542Z,5.62
2023-02-22T06:36:04.500Z,5.62
2023-02-22T06:37:04.495Z,5.62
2023-02-22T06:38:04.483Z,5.62
2023-02-22T06:39:04.500Z,5.62
2023-02-22T06:40:05.678Z,5.62
2023-02-22T06:41:05.489Z,5.62
2023-02-22T06:42:04.464Z,5.62
2023-02-22T06:43:04.447Z,5.62
2023-02-22T06:44:04.469Z,11.25
2023-02-22T06:45:04.435Z,11.25
2023-02-22T06:46:04.482Z,11.25
2023-02-22T06:47:04.444Z,11.25
2023-02-22T06:48:04.429Z,11.25
2023-02-22T06:49:04.451Z,11.25
2023-02-22T06:50:04.405Z,11.25
2023-02-22T06:51:04.395Z,11.25
2023-02-22T06:52:04.387Z,11.25
2023-02-22T06:53:04.376Z,16.88
2023-02-22T06:54:04.390Z,16.88
2023-02-22T06:55:04.376Z,16.88
2023-02-22T06:56:04.359Z,16.88
2023-02-22T06:57:04.366Z,16.88
2023-02-22T06:58:04.363Z,16.88
2023-02-22T06:59:04.357Z,16.88
2023-02-22T07:00:04.338Z,16.88
2023-02-22T07:01:04.369Z,22.50
2023-02-22T07:02:04.319Z,22.50
2023-02-22T07:03:04.335Z,22.50
2023-02-22T07:04:04.300Z,22.50
2023-02-22T07:05:04.321Z,22.50
2023-02-22T07:06:04.297Z,28.12
2023-02-22T07:07:04.276Z,28.12
2023-02-22T07:08:04.282Z,28.12
2023-02-22T07:09:04.297Z,28.12
2023-02-22T07:10:04.279Z,28.12
2023-02-22T07:11:04.259Z,28.12
2023-02-22T07:12:04.254Z,28.12
2023-02-22T07:13:04.267Z,28.12
2023-02-22T07:14:04.253Z,28.12
2023-02-22T07:15:04.254Z,28.12
2023-02-22T07:16:04.252Z,33.75
2023-02-22T07:17:04.214Z,33.75
2023-02-22T07:18:04.210Z,33.75
2023-02-22T07:19:04.202Z,33.75
2023-02-22T07:20:04.226Z,33.75
2023-02-22T07:21:04.196Z,33.75
2023-02-22T07:22:04.183Z,33.75
2023-02-22T07:23:04.182Z,33.75
2023-02-22T07:24:05.525Z,39.38
2023-02-22T07:25:05.197Z,39.38
2023-02-22T07:26:04.178Z,39.38
2023-02-22T07:27:04.156Z,39.38
2023-02-22T07:28:04.143Z,33.75
2023-02-22T07:29:04.159Z,33.75
2023-02-22T07:30:04.150Z,33.75
2023-02-22T07:31:04.136Z,33.75
2023-02-22T07:32:04.125Z,33.75
2023-02-22T07:33:04.165Z,33.75
2023-02-22T07:34:04.104Z,33.75
2023-02-22T07:35:04.143Z,33.75
2023-02-22T07:36:04.090Z,33.75
2023-02-22T07:37:04.068Z,33.75
2023-02-22T07:38:05.072Z,28.12
2023-02-22T07:39:04.070Z,28.12
2023-02-22T07:40:04.085Z,28.12
2023-02-22T07:41:04.066Z,28.12
2023-02-22T07:42:04.049Z,28.12
2023-02-22T07:43:05.937Z,33.75
2023-02-22T07:44:04.056Z,33.75
2023-02-22T07:45:04.052Z,33.75
2023-02-22T07:46:04.054Z,33.75
2023-02-22T07:47:04.017Z,33.75
2023-02-22T07:48:04.011Z,33.75
2023-02-22T07:49:04.010Z,33.75
2023-02-22T07:50:04.013Z,39.38
2023-02-22T07:51:04.003Z,39.38
2023-02-22T07:52:03.984Z,45.00
2023-02-22T07:53:03.972Z,45.00
2023-02-22T07:54:04.978Z,56.25
2023-02-22T07:55:04.000Z,56.25
2023-02-22T07:56:03.960Z,56.25
2023-02-22T07:57:03.954Z,61.88
2023-02-22T07:58:03.955Z,61.88
2023-02-22T07:59:03.939Z,61.88
2023-02-22T08:00:03.953Z,61.88
2023-02-22T08:01:03.926Z,61.88
2023-02-22T08:02:03.924Z,67.50
2023-02-22T08:03:03.931Z,67.50
2023-02-22T08:04:03.909Z,67.50
2023-02-22T08:05:03.935Z,67.50
2023-02-22T08:06:03.901Z,67.50
2023-02-22T08:07:03.896Z,73.12
2023-02-22T08:08:03.881Z,73.12
2023-02-22T08:09:03.926Z,73.12
2023-02-22T08:10:03.892Z,73.12
2023-02-22T08:11:03.870Z,78.75
2023-02-22T08:12:03.856Z,73.12
2023-02-22T08:13:03.857Z,73.12
2023-02-22T08:14:03.843Z,73.12
2023-02-22T08:15:03.834Z,73.12
2023-02-22T08:16:03.862Z,78.75
2023-02-22T08:17:03.968Z,84.38
2023-02-22T08:18:03.819Z,84.38
2023-02-22T08:19:03.810Z,78.75
2023-02-22T08:20:03.792Z,78.75
2023-02-22T08:21:03.814Z,78.75
2023-02-22T08:22:03.783Z,78.75
2023-02-22T08:23:06.232Z,78.75
2023-02-22T08:24:03.767Z,78.75
2023-02-22T08:25:03.799Z,73.12
2023-02-22T08:26:03.790Z,73.12
2023-02-22T08:27:03.741Z,73.12
2023-02-22T08:28:03.745Z,73.12
2023-02-22T08:29:03.734Z,73.12
2023-02-22T08:30:03.737Z,78.75
2023-02-22T08:31:03.747Z,78.75
2023-02-22T08:32:03.820Z,78.75
2023-02-22T08:33:03.922Z,84.38
2023-02-22T08:34:03.696Z,84.38
2023-02-22T08:35:03.698Z,78.75
2023-02-22T08:36:03.710Z,78.75
2023-02-22T08:37:03.692Z,84.38
2023-02-22T08:38:03.688Z,84.38
2023-02-22T08:39:03.686Z,90.00
2023-02-22T08:40:03.679Z,90.00
2023-02-22T08:41:03.693Z,95.62
2023-02-22T08:42:03.667Z,95.62
2023-02-22T08:43:03.652Z,95.62
2023-02-22T08:44:03.643Z,95.62
2023-02-22T08:45:03.624Z,90.00
2023-02-22T08:46:03.673Z,95.62
2023-02-22T08:47:03.619Z,90.00
2023-02-22T08:48:03.609Z,95.62
2023-02-22T08:49:03.613Z,95.62
2023-02-22T08:50:03.681Z,101.25
2023-02-22T08:51:03.615Z,106.88
2023-02-22T08:52:03.576Z,90.00
2023-02-22T08:53:03.568Z,95.62
2023-02-22T08:54:03.566Z,118.12
2023-02-22T08:55:03.556Z,118.12
2023-02-22T08:56:03.567Z,118.12
2023-02-22T08:57:03.576Z,118.12
2023-02-22T08:58:03.537Z,118.12
2023-02-22T08:59:03.537Z,112.50
2023-02-22T09:00:03.524Z,118.12
2023-02-22T09:01:03.533Z,101.25
2023-02-22T09:02:03.542Z,101.25
2023-02-22T09:03:03.510Z,101.25
2023-02-22T09:04:03.490Z,101.25
2023-02-22T09:05:03.491Z,106.88
2023-02-22T09:06:03.539Z,106.88
2023-02-22T09:07:03.506Z,106.88
2023-02-22T09:08:03.474Z,101.25
2023-02-22T09:09:03.467Z,101.25
2023-02-22T09:10:03.454Z,95.62
2023-02-22T09:11:03.464Z,95.62
2023-02-22T09:12:03.435Z,95.62
2023-02-22T09:13:03.426Z,95.62
2023-02-22T09:14:03.428Z,95.62
2023-02-22T09:15:03.417Z,90.00
2023-02-22T09:16:03.435Z,95.62
2023-02-22T09:17:05.650Z,101.25
2023-02-22T09:18:04.401Z,101.25
2023-02-22T09:19:03.405Z,101.25
2023-02-22T09:20:03.379Z,101.25
2023-02-22T09:21:03.396Z,106.88
2023-02-22T09:22:03.382Z,101.25
2023-02-22T09:23:03.370Z,101.25
2023-02-22T09:24:03.359Z,101.25
2023-02-22T09:25:15.882Z,106.88
2023-02-22T09:26:05.354Z,112.50
2023-02-22T09:27:03.329Z,118.12
2023-02-22T09:28:03.324Z,118.12
2023-02-22T09:29:03.321Z,118.12
2023-02-22T09:30:03.324Z,112.50
2023-02-22T09:31:03.341Z,112.50
2023-02-22T09:32:03.431Z,118.12
2023-02-22T09:33:03.560Z,123.75
2023-02-22T09:34:04.279Z,123.75
2023-02-22T09:35:04.277Z,123.75
2023-02-22T09:36:03.279Z,123.75
2023-02-22T09:37:03.271Z,123.75
2023-02-22T09:38:03.262Z,118.12
2023-02-22T09:39:03.249Z,123.75
2023-02-22T09:40:03.334Z,123.75
2023-02-22T09:41:03.253Z,123.75
2023-02-22T09:42:03.225Z,123.75
2023-02-22T09:43:03.223Z,118.12
2023-02-22T09:44:03.233Z,118.12
2023-02-22T09:45:03.205Z,118.12
2023-02-22T09:46:03.299Z,118.12
2023-02-22T09:47:03.194Z,112.50
2023-02-22T09:48:19.176Z,112.50
2023-02-22T09:49:05.193Z,118.12
2023-02-22T09:50:03.176Z,118.12
2023-02-22T09:51:03.183Z,112.50
2023-02-22T09:52:03.150Z,112.50
2023-02-22T09:53:03.157Z,118.12
2023-02-22T09:54:03.165Z,123.75
2023-02-22T09:55:03.137Z,135.00
2023-02-22T09:56:03.145Z,135.00
2023-02-22T09:57:03.173Z,157.50
2023-02-22T09:58:03.139Z,157.50
2023-02-22T09:59:03.106Z,157.50
2023-02-22T10:00:03.100Z,151.88
2023-02-22T10:01:03.102Z,151.88
2023-02-22T10:02:03.104Z,146.25
2023-02-22T10:03:03.079Z,151.88
2023-02-22T10:04:04.121Z,163.12
2023-02-22T10:05:03.158Z,168.75
2023-02-22T10:06:03.086Z,180.00
2023-02-22T10:07:03.056Z,185.62
2023-02-22T10:08:03.055Z,185.62
2023-02-22T10:09:03.046Z,185.62
2023-02-22T10:10:03.043Z,191.25
2023-02-22T10:11:03.046Z,180.00
2023-02-22T10:12:03.039Z,185.62
2023-02-22T10:13:03.026Z,185.62
2023-02-22T10:14:03.018Z,168.75
2023-02-22T10:15:03.017Z,146.25
2023-02-22T10:16:03.011Z,146.25
2023-02-22T10:17:03.026Z,146.25
2023-02-22T10:18:02.998Z,163.12
2023-02-22T10:19:02.977Z,168.75
2023-02-22T10:20:02.986Z,168.75
2023-02-22T10:21:02.989Z,168.75
2023-02-22T10:22:02.959Z,163.12
2023-02-22T10:23:02.949Z,163.12
2023-02-22T10:24:02.941Z,157.50
2023-02-22T10:25:03.088Z,163.12
2023-02-22T10:26:02.971Z,168.75
2023-02-22T10:27:02.916Z,168.75
2023-02-22T10:28:02.971Z,168.75
2023-02-22T10:29:02.920Z,163.12
2023-02-22T10:30:12.740Z,157.50
2023-02-22T10:31:05.003Z,157.50
2023-02-22T10:32:02.965Z,163.12
2023-02-22T10:33:02.884Z,157.50
2023-02-22T10:34:02.881Z,151.88
2023-02-22T10:35:02.869Z,151.88
2023-02-22T10:36:02.904Z,163.12
2023-02-22T10:37:02.857Z,168.75
2023-02-22T10:38:02.855Z,174.38
2023-02-22T10:39:02.846Z,185.62
2023-02-22T10:40:02.830Z,196.88
2023-02-22T10:41:02.849Z,208.12
2023-02-22T10:42:02.852Z,202.50
2023-02-22T10:43:03.820Z,208.12
2023-02-22T10:44:02.831Z,196.88
2023-02-22T10:45:02.795Z,208.12
2023-02-22T10:46:02.893Z,202.50
2023-02-22T10:47:02.794Z,191.25
2023-02-22T10:48:02.781Z,196.88
2023-02-22T10:49:02.871Z,219.38
2023-02-22T10:50:02.802Z,196.88
2023-02-22T10:51:02.779Z,168.75
2023-02-22T10:52:02.805Z,174.38
2023-02-22T10:53:02.822Z,180.00
2023-02-22T10:54:02.737Z,180.00
2023-02-22T10:55:14.533Z,168.75
2023-02-22T10:56:04.805Z,174.38
2023-02-22T10:57:02.721Z,174.38
2023-02-22T10:58:02.708Z,168.75
2023-02-22T10:59:02.737Z,168.75
2023-02-22T11:00:02.726Z,163.12
2023-02-22T11:01:02.729Z,157.50
2023-02-22T11:02:03.364Z,163.12
2023-02-22T11:03:02.698Z,168.75
2023-02-22T11:04:02.684Z,168.75
2023-02-22T11:05:02.767Z,174.38
2023-02-22T11:06:02.663Z,168.75
2023-02-22T11:07:02.705Z,168.75
2023-02-22T11:08:02.651Z,168.75
2023-02-22T11:09:02.644Z,168.75
2023-02-22T11:10:02.641Z,168.75
2023-02-22T11:11:02.629Z,168.75
2023-02-22T11:12:02.648Z,163.12
2023-02-22T11:13:02.602Z,163.12
2023-02-22T11:14:02.626Z,163.12
2023-02-22T11:15:02.620Z,163.12
2023-02-22T11:16:02.597Z,157.50
2023-02-22T11:17:02.639Z,157.50
2023-02-22T11:18:02.602Z,157.50
2023-02-22T11:19:02.582Z,163.12
2023-02-22T11:20:02.568Z,168.75
2023-02-22T11:21:02.550Z,174.38
2023-02-22T11:22:02.535Z,180.00
2023-02-22T11:23:02.543Z,180.00
2023-02-22T11:24:02.549Z,185.62
2023-02-22T11:25:02.524Z,191.25
2023-02-22T11:26:02.516Z,196.88
2023-02-22T11:27:02.520Z,196.88
2023-02-22T11:28:02.508Z,202.50
2023-02-22T11:29:02.512Z,208.12
2023-02-22T11:30:04.470Z,219.38
2023-02-22T11:31:02.574Z,219.38
2023-02-22T11:32:02.575Z,213.75
2023-02-22T11:33:02.484Z,225.00
2023-02-22T11:34:02.481Z,219.38
2023-02-22T11:35:08.926Z,213.75
2023-02-22T11:36:04.480Z,213.75
2023-02-22T11:37:02.465Z,208.12
2023-02-22T11:38:02.436Z,219.38
2023-02-22T11:39:02.450Z,225.00
2023-02-22T11:40:02.420Z,258.75
2023-02-22T11:41:02.417Z,264.38
2023-02-22T11:42:02.421Z,270.00
2023-02-22T11:43:02.400Z,270.00
2023-02-22T11:44:02.395Z,264.38
2023-02-22T11:45:02.402Z,264.38
2023-02-22T11:46:02.437Z,275.62
2023-02-22T11:47:02.401Z,275.62
2023-02-22T11:48:02.363Z,253.12
2023-02-22T11:49:02.385Z,275.62
2023-02-22T11:50:02.351Z,275.62
2023-02-22T11:51:02.331Z,275.62
2023-02-22T11:52:02.347Z,270.00
2023-02-22T11:53:02.321Z,275.62
2023-02-22T11:54:02.306Z,270.00
2023-02-22T11:55:02.320Z,270.00
2023-02-22T11:56:02.299Z,275.62
2023-02-22T11:57:02.318Z,275.62
2023-02-22T11:58:02.285Z,270.00
2023-02-22T11:59:02.275Z,270.00
2023-02-22T12:00:02.306Z,258.75
2023-02-22T12:01:02.267Z,258.75
2023-02-22T12:02:02.281Z,253.12
2023-02-22T12:03:02.246Z,258.75
2023-02-22T12:04:02.344Z,258.75
2023-02-22T12:05:02.249Z,253.12
2023-02-22T12:06:02.241Z,253.12
2023-02-22T12:07:02.241Z,253.12
2023-02-22T12:08:13.804Z,247.50
2023-02-22T12:09:04.223Z,247.50
2023-02-22T12:10:02.214Z,247.50
2023-02-22T12:11:02.195Z,241.88
2023-02-22T12:12:02.217Z,241.88
2023-02-22T12:13:02.198Z,247.50
2023-02-22T12:14:02.180Z,241.88
2023-02-22T12:15:02.174Z,241.88
2023-02-22T12:16:02.193Z,247.50
2023-02-22T12:17:02.180Z,247.50
2023-02-22T12:18:02.169Z,253.12
2023-02-22T12:19:02.141Z,258.75
2023-02-22T12:20:02.144Z,253.12
2023-02-22T12:21:02.153Z,247.50
2023-02-22T12:22:02.147Z,253.12
2023-02-22T12:23:02.130Z,247.50
2023-02-22T12:24:02.116Z,258.75
2023-02-22T12:25:09.832Z,253.12
2023-02-22T12:26:04.106Z,253.12
2023-02-22T12:27:02.104Z,253.12
2023-02-22T12:28:05.747Z,258.75
2023-02-22T12:29:03.187Z,258.75
2023-02-22T12:30:02.078Z,258.75
2023-02-22T12:31:02.096Z,270.00
2023-02-22T12:32:02.162Z,264.38
2023-02-22T12:33:02.216Z,264.38
2023-02-22T12:34:02.206Z,264.38
2023-02-22T12:35:02.035Z,253.12
2023-02-22T12:36:02.067Z,258.75
2023-02-22T12:37:02.066Z,264.38
2023-02-22T12:38:02.001Z,258.75
2023-02-22T12:39:02.059Z,264.38
2023-02-22T12:40:02.016Z,258.75
2023-02-22T12:41:02.036Z,264.38
2023-02-22T12:42:01.970Z,241.88
2023-02-22T12:43:02.978Z,236.25
2023-02-22T12:44:01.959Z,236.25
2023-02-22T12:45:01.966Z,236.25
2023-02-22T12:46:02.022Z,241.88
2023-02-22T12:47:01.969Z,253.12
2023-02-22T12:48:01.967Z,247.50
2023-02-22T12:49:01.940Z,258.75
2023-02-22T12:50:01.984Z,258.75
2023-02-22T12:51:01.956Z,241.88
2023-02-22T12:52:12.459Z,264.38
2023-02-22T12:53:03.907Z,264.38
2023-02-22T12:54:01.893Z,258.75
2023-02-22T12:55:01.891Z,225.00
2023-02-22T12:56:01.927Z,236.25
2023-02-22T12:57:01.907Z,230.62